createdAt,value
2024-02-21T00:00:42.830Z,97.59
2024-02-21T00:03:09.726Z,97.83
2024-02-21T00:05:36.643Z,97.93
2024-02-21T00:08:04.490Z,97.26
2024-02-21T00:10:33.445Z,97.46
2024-02-21T00:13:03.123Z,97.32
2024-02-21T00:15:30.272Z,97.33
2024-02-21T00:17:57.210Z,96.60
2024-02-21T00:20:24.247Z,95.93
2024-02-21T00:22:51.137Z,96.00
2024-02-21T00:25:18.636Z,95.88
2024-02-21T00:27:45.603Z,95.69
2024-02-21T00:30:12.917Z,94.71
2024-02-21T00:32:39.982Z,94.77
2024-02-21T00:35:07.096Z,94.33
2024-02-21T00:37:34.035Z,93.75
2024-02-21T00:40:00.941Z,93.93
2024-02-21T00:42:27.848Z,93.69
2024-02-21T00:44:54.718Z,93.70
2024-02-21T00:47:22.298Z,93.57
2024-02-21T00:49:49.471Z,93.96
2024-02-21T00:52:16.448Z,93.91
2024-02-21T00:54:50.354Z,94.10
2024-02-21T00:57:20.554Z,94.13
2024-02-21T00:59:47.599Z,93.86
2024-02-21T01:02:14.759Z,93.77
2024-02-21T01:04:42.023Z,93.83
2024-02-21T01:07:09.030Z,93.97
2024-02-21T01:09:35.917Z,94.38
2024-02-21T01:12:02.903Z,94.39
2024-02-21T01:14:30.098Z,94.57
2024-02-21T01:16:57.073Z,94.97
2024-02-21T01:19:24.400Z,94.84
2024-02-21T01:21:51.509Z,94.36
2024-02-21T01:24:18.492Z,94.26
2024-02-21T01:26:45.300Z,94.30
2024-02-21T01:29:12.205Z,94.28
2024-02-21T01:31:39.281Z,94.48
2024-02-21T01:34:06.275Z,94.98
2024-02-21T01:36:33.309Z,94.79
2024-02-21T01:39:00.224Z,94.37
2024-02-21T01:41:27.152Z,94.35
2024-02-21T01:43:54.190Z,94.56
2024-02-21T01:46:21.225Z,94.80
2024-02-21T01:48:48.310Z,95.00
2024-02-21T01:51:15.412Z,95.03
2024-02-21T01:53:45.545Z,94.67
2024-02-21T01:56:13.350Z,94.84
2024-02-21T01:58:41.473Z,94.83
2024-02-21T02:01:08.544Z,95.10
2024-02-21T02:03:35.560Z,94.92
2024-02-21T02:06:02.755Z,95.18
2024-02-21T02:08:29.804Z,95.56
2024-02-21T02:10:57.257Z,95.55
2024-02-21T02:13:24.273Z,95.97
2024-02-21T02:15:51.213Z,95.75
2024-02-21T02:18:21.392Z,95.64
2024-02-21T02:20:48.621Z,95.80
2024-02-21T02:23:30.242Z,96.15
2024-02-21T02:25:57.519Z,95.70
2024-02-21T02:28:24.637Z,95.98
2024-02-21T02:30:51.787Z,96.08
2024-02-21T02:33:19.249Z,96.36
2024-02-21T02:35:46.646Z,95.98
2024-02-21T02:38:14.589Z,96.21
2024-02-21T02:40:42.025Z,95.94
2024-02-21T02:43:09.565Z,96.08
2024-02-21T02:45:36.614Z,96.03
2024-02-21T02:48:05.560Z,95.74
2024-02-21T02:50:32.672Z,95.82
2024-02-21T02:52:59.708Z,95.74
2024-02-21T02:55:27.758Z,95.63
2024-02-21T02:57:55.612Z,96.11
2024-02-21T03:00:22.604Z,95.89
2024-02-21T03:02:49.980Z,95.63
2024-02-21T03:05:18.398Z,95.40
2024-02-21T03:07:45.669Z,95.34
2024-02-21T03:10:12.959Z,95.02
2024-02-21T03:12:40.224Z,94.62
2024-02-21T03:15:07.496Z,94.61
2024-02-21T03:17:37.474Z,94.44
2024-02-21T03:20:12.521Z,94.15
2024-02-21T03:22:41.117Z,94.17
2024-02-21T03:25:09.415Z,94.01
2024-02-21T03:27:36.437Z,93.74
2024-02-21T03:30:03.667Z,93.88
2024-02-21T03:32:31.051Z,93.39
2024-02-21T03:34:58.272Z,93.20
2024-02-21T03:37:25.401Z,93.17
2024-02-21T03:39:52.541Z,92.65
2024-02-21T03:42:19.405Z,92.52
2024-02-21T03:44:46.233Z,92.41
2024-02-21T03:47:13.362Z,92.08
2024-02-21T03:49:40.778Z,92.35
2024-02-21T03:52:07.868Z,91.94
2024-02-21T03:54:34.894Z,91.99
2024-02-21T03:57:01.774Z,91.61
2024-02-21T03:59:28.746Z,91.45
2024-02-21T04:01:55.833Z,90.65
2024-02-21T04:04:23.013Z,90.92
2024-02-21T04:06:50.624Z,90.79
2024-02-21T04:09:17.796Z,90.75
2024-02-21T04:11:44.813Z,90.78
2024-02-21T04:14:12.914Z,90.49
2024-02-21T04:16:40.798Z,89.94
2024-02-21T04:19:08.663Z,89.82
2024-02-21T04:21:35.904Z,89.60
2024-02-21T04:24:04.689Z,89.20
2024-02-21T04:26:31.842Z,88.60
2024-02-21T04:28:59.006Z,89.00
2024-02-21T04:31:26.271Z,88.43
2024-02-21T04:33:53.334Z,88.29
2024-02-21T04:36:20.391Z,88.30
2024-02-21T04:38:47.433Z,87.52
2024-02-21T04:41:14.476Z,87.80
2024-02-21T04:43:42.106Z,87.80
2024-02-21T04:46:09.277Z,88.13
2024-02-21T04:48:36.295Z,88.13
2024-02-21T04:51:03.255Z,87.59
2024-02-21T04:53:30.449Z,87.59
2024-02-21T04:55:57.465Z,87.89
2024-02-21T04:58:24.458Z,87.43
2024-02-21T05:00:52.096Z,87.36
2024-02-21T05:03:19.083Z,87.24
2024-02-21T05:05:45.999Z,87.56
2024-02-21T05:08:13.194Z,87.81
2024-02-21T05:10:40.549Z,86.76
2024-02-21T05:13:07.515Z,87.08
2024-02-21T05:15:34.436Z,87.33
2024-02-21T05:18:01.477Z,87.10
2024-02-21T05:20:28.550Z,87.17
2024-02-21T05:22:55.457Z,86.97
2024-02-21T05:25:22.424Z,86.93
2024-02-21T05:27:49.995Z,87.41
2024-02-21T05:30:17.008Z,87.63
2024-02-21T05:32:44.000Z,87.85
2024-02-21T05:35:10.995Z,87.62
2024-02-21T05:37:37.897Z,87.67
2024-02-21T05:40:05.030Z,87.79
2024-02-21T05:42:32.274Z,87.56
2024-02-21T05:44:59.207Z,87.17
2024-02-21T05:47:26.299Z,87.43
2024-02-21T05:49:55.532Z,87.79
2024-02-21T05:52:22.614Z,87.90
2024-02-21T05:54:51.371Z,87.78
2024-02-21T05:57:19.277Z,87.54
2024-02-21T05:59:46.166Z,87.63
2024-02-21T06:02:13.104Z,88.07
2024-02-21T06:04:40.996Z,87.94
2024-02-21T06:07:08.054Z,87.85
2024-02-21T06:09:35.302Z,87.79
2024-02-21T06:12:02.404Z,87.61
2024-02-21T06:14:29.372Z,87.48
2024-02-21T06:16:56.711Z,87.50
2024-02-21T06:19:24.121Z,87.58
2024-02-21T06:21:51.072Z,87.83
2024-02-21T06:24:18.092Z,87.30
2024-02-21T06:26:45.822Z,87.34
2024-02-21T06:29:14.567Z,87.29
2024-02-21T06:31:41.756Z,87.18
2024-02-21T06:34:08.955Z,86.41
2024-02-21T06:36:36.105Z,86.39
2024-02-21T06:39:05.817Z,86.03
2024-02-21T06:41:34.049Z,85.97
2024-02-21T06:44:01.273Z,85.43
2024-02-21T06:46:30.352Z,85.30
2024-02-21T06:48:58.215Z,85.60
2024-02-21T06:51:26.347Z,85.65
2024-02-21T06:53:54.044Z,86.09
2024-02-21T06:56:21.041Z,86.46
2024-02-21T06:58:48.057Z,86.39
2024-02-21T07:01:15.539Z,86.17
2024-02-21T07:03:42.500Z,86.62
2024-02-21T07:06:09.614Z,86.24
2024-02-21T07:08:36.745Z,86.36
2024-02-21T07:11:03.802Z,86.00
2024-02-21T07:13:30.910Z,86.12
2024-02-21T07:15:58.166Z,85.73
2024-02-21T07:18:26.599Z,85.35
2024-02-21T07:20:53.973Z,85.12
2024-02-21T07:23:21.125Z,84.87
2024-02-21T07:25:47.993Z,84.28
2024-02-21T07:28:15.620Z,83.67
2024-02-21T07:30:42.932Z,83.14
2024-02-21T07:33:10.043Z,83.13
2024-02-21T07:35:41.904Z,80.59
2024-02-21T07:38:13.854Z,80.46
2024-02-21T07:40:41.451Z,79.99
2024-02-21T07:43:08.773Z,77.83
2024-02-21T07:45:36.107Z,77.93
2024-02-21T07:48:03.696Z,76.25
2024-02-21T07:50:30.894Z,76.39
2024-02-21T07:52:58.592Z,74.67
2024-02-21T07:55:25.657Z,74.39
2024-02-21T07:57:52.591Z,73.84
2024-02-21T08:00:23.163Z,73.39
2024-02-21T08:02:50.417Z,72.49
2024-02-21T08:05:17.473Z,70.43
2024-02-21T08:07:44.560Z,68.38
2024-02-21T08:10:11.562Z,69.19
2024-02-21T08:12:38.859Z,70.88
2024-02-21T08:15:05.965Z,71.41
2024-02-21T08:17:33.581Z,71.31
2024-02-21T08:20:00.844Z,70.08
2024-02-21T08:22:28.065Z,70.57
2024-02-21T08:24:55.511Z,70.85
2024-02-21T08:27:22.718Z,69.85
2024-02-21T08:29:49.662Z,69.39
2024-02-21T08:32:16.612Z,69.27
2024-02-21T08:34:43.503Z,67.16
2024-02-21T08:37:12.074Z,66.77
2024-02-21T08:39:39.773Z,67.46
2024-02-21T08:42:06.768Z,67.99
2024-02-21T08:44:33.783Z,68.79
2024-02-21T08:47:01.472Z,68.89
2024-02-21T08:49:33.798Z,69.18
2024-02-21T08:52:05.317Z,68.97
2024-02-21T08:54:34.042Z,67.80
2024-02-21T08:57:00.996Z,68.31
2024-02-21T08:59:28.024Z,67.40
2024-02-21T09:01:55.110Z,67.12
2024-02-21T09:04:22.257Z,67.62
2024-02-21T09:06:49.352Z,68.14
2024-02-21T09:09:16.245Z,69.27
2024-02-21T09:11:43.348Z,69.29
2024-02-21T09:14:10.378Z,69.84
2024-02-21T09:16:37.932Z,69.63
2024-02-21T09:19:05.244Z,70.55
2024-02-21T09:21:32.257Z,70.15
2024-02-21T09:24:00.393Z,69.86
2024-02-21T09:26:28.046Z,70.04
2024-02-21T09:28:55.443Z,70.91
2024-02-21T09:31:22.604Z,70.90
2024-02-21T09:33:49.747Z,70.85
2024-02-21T09:36:16.842Z,71.41
2024-02-21T09:38:43.809Z,71.63
2024-02-21T09:41:27.086Z,72.86
2024-02-21T09:43:57.194Z,73.37
2024-02-21T09:46:51.840Z,74.15
2024-02-21T09:49:24.630Z,75.05
2024-02-21T09:51:51.552Z,73.94
2024-02-21T09:54:19.698Z,74.53
2024-02-21T09:56:48.246Z,75.06
2024-02-21T09:59:16.726Z,76.10
2024-02-21T10:01:45.396Z,77.26
2024-02-21T10:04:12.636Z,78.57
2024-02-21T10:06:40.501Z,80.59
2024-02-21T10:09:07.913Z,80.61
2024-02-21T10:11:38.285Z,81.43
2024-02-21T10:14:09.518Z,81.44
2024-02-21T10:16:38.665Z,80.84
2024-02-21T10:19:06.026Z,81.14
2024-02-21T10:21:33.118Z,80.25
2024-02-21T10:24:00.011Z,80.59
2024-02-21T10:26:27.026Z,80.04
2024-02-21T10:28:55.781Z,79.84
2024-02-21T10:31:29.783Z,79.53
2024-02-21T10:34:00.558Z,79.03
2024-02-21T10:36:27.772Z,79.25
2024-02-21T10:38:57.827Z,80.55
2024-02-21T10:41:24.988Z,79.66
2024-02-21T10:43:56.415Z,79.41
2024-02-21T10:46:25.583Z,80.03
2024-02-21T10:49:15.002Z,80.04
2024-02-21T10:51:44.662Z,80.95
2024-02-21T10:54:23.852Z,81.62
2024-02-21T10:56:51.630Z,82.41
2024-02-21T10:59:18.591Z,83.28
2024-02-21T11:01:45.682Z,83.07
2024-02-21T11:04:15.438Z,84.71
2024-02-21T11:06:42.687Z,84.39
2024-02-21T11:09:11.177Z,84.22
2024-02-21T11:11:42.822Z,84.41
2024-02-21T11:14:10.995Z,85.44
2024-02-21T11:16:42.277Z,85.36
2024-02-21T11:19:26.676Z,85.47
2024-02-21T11:21:54.921Z,86.13
2024-02-21T11:24:32.342Z,86.60
2024-02-21T11:27:30.050Z,86.64
2024-02-21T11:29:57.808Z,87.59
2024-02-21T11:32:25.101Z,88.66
2024-02-21T11:34:56.250Z,88.03
2024-02-21T11:37:25.086Z,89.02
2024-02-21T11:39:54.169Z,88.69
2024-02-21T11:42:21.285Z,89.22
2024-02-21T11:44:48.288Z,89.95
2024-02-21T11:47:15.739Z,90.60
2024-02-21T11:49:55.159Z,91.60
2024-02-21T11:52:26.941Z,92.52
2024-02-21T11:54:55.864Z,93.62
2024-02-21T11:57:23.154Z,94.08
2024-02-21T11:59:54.737Z,94.06
2024-02-21T12:02:23.440Z,94.59
2024-02-21T12:04:50.544Z,94.67
2024-02-21T12:07:19.100Z,95.04
2024-02-21T12:09:46.116Z,95.14
2024-02-21T12:12:13.313Z,95.53
2024-02-21T12:14:40.232Z,95.32
2024-02-21T12:17:07.892Z,95.95
2024-02-21T12:19:35.493Z,96.29
2024-02-21T12:22:03.089Z,95.57
2024-02-21T12:24:30.589Z,96.00
2024-02-21T12:27:01.538Z,96.01
2024-02-21T12:29:29.983Z,96.19
2024-02-21T12:31:57.199Z,96.43
2024-02-21T12:34:35.464Z,97.10
2024-02-21T12:37:14.245Z,96.46
2024-02-21T12:39:41.457Z,96.63
2024-02-21T12:42:08.421Z,96.49
2024-02-21T12:44:35.461Z,96.58
2024-02-21T12:47:02.607Z,96.82
2024-02-21T12:49:31.129Z,96.37
2024-02-21T12:51:58.314Z,96.70
2024-02-21T12:54:25.267Z,96.44
2024-02-21T12:56:52.217Z,96.95
2024-02-21T12:59:19.188Z,96.44
2024-02-21T13:01:46.295Z,96.41
2024-02-21T13:04:13.395Z,96.54
2024-02-21T13:06:40.490Z,96.38
2024-02-21T13:09:09.425Z,96.21
2024-02-21T13:11:36.652Z,96.51
2024-02-21T13:14:03.794Z,96.19
2024-02-21T13:16:30.982Z,96.33
2024-02-21T13:18:58.275Z,96.39
2024-02-21T13:21:25.346Z,96.28
2024-02-21T13:23:52.331Z,96.57
2024-02-21T13:26:19.897Z,97.07
2024-02-21T13:28:46.934Z,97.13
2024-02-21T13:31:13.995Z,97.52
2024-02-21T13:33:41.386Z,97.51
2024-02-21T13:36:08.344Z,97.45
2024-02-21T13:38:35.407Z,97.80
2024-02-21T13:41:02.590Z,97.58
2024-02-21T13:43:29.752Z,97.35
2024-02-21T13:46:00.942Z,97.03
2024-02-21T13:48:28.702Z,97.36
2024-02-21T13:50:55.801Z,97.34
2024-02-21T13:53:23.946Z,96.64
2024-02-21T13:55:51.215Z,96.64
2024-02-21T13:58:18.718Z,96.66
2024-02-21T14:00:45.921Z,96.33
2024-02-21T14:03:13.041Z,96.46
2024-02-21T14:05:43.579Z,96.53
2024-02-21T14:08:10.905Z,96.31
2024-02-21T14:10:38.849Z,96.27
2024-02-21T14:13:06.307Z,96.29
2024-02-21T14:15:33.551Z,96.04
2024-02-21T14:18:00.684Z,96.13
2024-02-21T14:20:28.102Z,95.84
2024-02-21T14:22:55.114Z,96.11
2024-02-21T14:25:22.191Z,95.41
2024-02-21T14:27:49.244Z,95.93
2024-02-21T14:30:16.213Z,95.83
2024-02-21T14:32:44.980Z,95.91
2024-02-21T14:35:12.097Z,95.60
2024-02-21T14:37:39.115Z,95.95
2024-02-21T14:40:07.087Z,95.97
2024-02-21T14:42:35.495Z,95.72
2024-02-21T14:45:05.731Z,96.46
2024-02-21T14:47:35.498Z,95.86
2024-02-21T14:50:04.089Z,95.95
2024-02-21T14:52:32.520Z,96.19
2024-02-21T14:54:59.681Z,95.92
2024-02-21T14:57:26.639Z,96.33
2024-02-21T14:59:57.551Z,96.32
2024-02-21T15:02:24.750Z,96.74
2024-02-21T15:04:54.667Z,96.11
2024-02-21T15:07:25.576Z,96.38
2024-02-21T15:09:52.549Z,96.30
2024-02-21T15:12:19.436Z,96.54
2024-02-21T15:14:46.441Z,96.14
2024-02-21T15:17:14.128Z,96.18
2024-02-21T15:19:45.086Z,96.33
2024-02-21T15:22:12.840Z,96.17
2024-02-21T15:24:40.570Z,95.99
2024-02-21T15:27:07.985Z,96.03
2024-02-21T15:29:35.737Z,96.28
2024-02-21T15:32:03.597Z,96.15
2024-02-21T15:34:30.862Z,96.14
2024-02-21T15:36:57.992Z,95.73
2024-02-21T15:39:28.013Z,96.05
2024-02-21T15:41:56.170Z,95.77
2024-02-21T15:44:23.478Z,96.08
2024-02-21T15:46:50.497Z,96.15
2024-02-21T15:49:17.578Z,95.82
2024-02-21T15:51:44.638Z,95.61
2024-02-21T15:54:11.620Z,95.61
2024-02-21T15:56:38.626Z,95.78
2024-02-21T15:59:06.232Z,95.55
2024-02-21T16:01:36.269Z,95.54
2024-02-21T16:04:03.723Z,95.27
2024-02-21T16:06:30.882Z,95.61
2024-02-21T16:08:57.800Z,95.36
2024-02-21T16:11:24.876Z,95.28
2024-02-21T16:13:52.966Z,95.71
2024-02-21T16:16:20.106Z,95.52
2024-02-21T16:18:47.901Z,95.33
2024-02-21T16:21:17.683Z,95.33
2024-02-21T16:23:44.685Z,95.45
2024-02-21T16:26:12.931Z,95.55
2024-02-21T16:28:40.123Z,95.23
2024-02-21T16:31:07.459Z,95.45
2024-02-21T16:33:34.772Z,95.32
2024-02-21T16:36:03.536Z,95.29
2024-02-21T16:38:30.665Z,95.47
2024-02-21T16:40:57.625Z,95.71
2024-02-21T16:43:24.558Z,95.89
2024-02-21T16:45:52.087Z,95.87
2024-02-21T16:48:19.925Z,96.11
2024-02-21T16:50:53.561Z,95.85
2024-02-21T16:53:27.089Z,96.22
2024-02-21T16:55:54.130Z,95.58
2024-02-21T16:58:21.118Z,95.39
2024-02-21T17:00:49.196Z,95.75
2024-02-21T17:03:21.493Z,95.81
2024-02-21T17:05:54.878Z,95.08
2024-02-21T17:08:25.159Z,94.46
2024-02-21T17:10:52.750Z,94.18
2024-02-21T17:13:19.943Z,94.26
2024-02-21T17:15:47.315Z,94.25
2024-02-21T17:18:14.379Z,94.20
2024-02-21T17:20:41.389Z,93.73
2024-02-21T17:23:08.423Z,94.33
2024-02-21T17:25:36.110Z,93.92
2024-02-21T17:28:03.105Z,93.89
2024-02-21T17:30:30.253Z,94.08
2024-02-21T17:32:57.262Z,93.88
2024-02-21T17:35:25.753Z,93.83
2024-02-21T17:37:52.996Z,94.23
2024-02-21T17:40:19.943Z,94.26
2024-02-21T17:42:46.880Z,94.13
2024-02-21T17:45:13.895Z,94.38
2024-02-21T17:47:40.877Z,94.37
2024-02-21T17:50:08.428Z,94.31
2024-02-21T17:52:35.449Z,94.60
2024-02-21T17:55:05.626Z,94.23
2024-02-21T17:57:32.801Z,93.75
2024-02-21T18:00:00.533Z,93.67
2024-02-21T18:02:28.193Z,93.73
2024-02-21T18:04:55.447Z,93.30
2024-02-21T18:07:22.630Z,93.60
2024-02-21T18:09:51.752Z,93.45
2024-02-21T18:12:18.923Z,93.46
2024-02-21T18:14:46.169Z,93.25
2024-02-21T18:17:15.743Z,93.20
2024-02-21T18:19:43.141Z,93.74
2024-02-21T18:22:10.508Z,94.89
2024-02-21T18:24:37.479Z,96.05
2024-02-21T18:27:04.976Z,95.73
2024-02-21T18:29:38.744Z,97.09
2024-02-21T18:32:10.787Z,97.64
2024-02-21T18:34:38.494Z,97.93
2024-02-21T18:37:05.676Z,98.87
2024-02-21T18:39:33.085Z,98.92
2024-02-21T18:42:00.333Z,99.63
2024-02-21T18:44:27.335Z,100.00
2024-02-21T18:46:54.393Z,100.00
2024-02-21T18:49:21.787Z,100.00
2024-02-21T18:51:48.837Z,100.00
2024-02-21T18:54:15.863Z,100.00
2024-02-21T18:56:46.778Z,100.00
2024-02-21T18:59:13.841Z,100.00
2024-02-21T19:01:40.915Z,100.00
2024-02-21T19:04:08.031Z,100.00
2024-02-21T19:06:35.264Z,100.00
2024-02-21T19:09:05.626Z,100.00
2024-02-21T19:11:33.374Z,100.00
2024-02-21T19:14:00.859Z,100.00
2024-02-21T19:16:29.929Z,100.00
2024-02-21T19:18:57.273Z,100.00
2024-02-21T19:21:24.347Z,100.00
2024-02-21T19:23:51.334Z,100.00
2024-02-21T19:26:18.322Z,100.00
2024-02-21T19:28:46.519Z,100.00
2024-02-21T19:31:13.897Z,100.00
2024-02-21T19:33:41.697Z,100.00
2024-02-21T19:36:10.518Z,100.00
2024-02-21T19:38:37.788Z,100.00
2024-02-21T19:41:08.265Z,100.00
2024-02-21T19:43:35.530Z,100.00
2024-02-21T19:46:03.114Z,100.00
2024-02-21T19:48:30.640Z,100.00
2024-02-21T19:50:58.303Z,100.00
2024-02-21T19:53:25.509Z,100.00
2024-02-21T19:55:52.864Z,100.00
2024-02-21T19:58:19.964Z,100.00
2024-02-21T20:00:47.034Z,100.00
2024-02-21T20:03:14.234Z,100.00
2024-02-21T20:05:44.106Z,100.00
2024-02-21T20:08:13.050Z,100.00
2024-02-21T20:10:41.249Z,100.00
2024-02-21T20:13:08.320Z,100.00
2024-02-21T20:15:35.233Z,100.00
2024-02-21T20:18:02.431Z,100.00
2024-02-21T20:20:30.187Z,100.00
2024-02-21T20:22:57.187Z,100.00
2024-02-21T20:25:24.159Z,100.00
2024-02-21T20:27:51.127Z,100.00
2024-02-21T20:30:18.616Z,100.00
2024-02-21T20:32:45.754Z,100.00
2024-02-21T20:35:12.901Z,100.00
2024-02-21T20:37:40.051Z,100.00
2024-02-21T20:40:10.032Z,100.00
2024-02-21T20:42:37.121Z,100.00
2024-02-21T20:45:04.477Z,100.00
2024-02-21T20:47:31.924Z,100.00
2024-02-21T20:50:00.004Z,100.00
2024-02-21T20:52:27.333Z,100.00
2024-02-21T20:54:54.295Z,100.00
2024-02-21T20:57:22.279Z,100.00
2024-02-21T20:59:50.135Z,100.00
2024-02-21T21:02:17.310Z,100.00
2024-02-21T21:04:44.451Z,100.00
2024-02-21T21:07:12.144Z,100.00
2024-02-21T21:09:40.634Z,100.00
2024-02-21T21:12:08.075Z,100.00
2024-02-21T21:14:35.517Z,100.00
2024-02-21T21:17:05.670Z,100.00
2024-02-21T21:19:33.385Z,100.00
2024-02-21T21:22:01.880Z,100.00
2024-02-21T21:24:30.399Z,100.00
2024-02-21T21:26:57.518Z,100.00
2024-02-21T21:29:24.523Z,100.00
2024-02-21T21:31:51.771Z,100.00
2024-02-21T21:34:19.099Z,100.00
2024-02-21T21:36:46.718Z,100.00
2024-02-21T21:39:17.538Z,100.00
2024-02-21T21:41:44.510Z,100.00
2024-02-21T21:44:11.772Z,100.00
2024-02-21T21:46:44.215Z,100.00
2024-02-21T21:49:11.423Z,100.00
2024-02-21T21:51:38.680Z,100.00
2024-02-21T21:54:05.727Z,100.00
2024-02-21T21:56:32.749Z,100.00
2024-02-21T21:58:59.841Z,100.00
2024-02-21T22:01:29.992Z,100.00
2024-02-21T22:03:57.009Z,100.00
2024-02-21T22:06:23.976Z,100.00
2024-02-21T22:08:52.893Z,100.00
2024-02-21T22:11:20.308Z,100.00
2024-02-21T22:13:48.100Z,100.00
2024-02-21T22:16:15.164Z,100.00
2024-02-21T22:18:42.851Z,100.00
2024-02-21T22:21:09.963Z,100.00
2024-02-21T22:23:40.196Z,100.00
2024-02-21T22:26:08.111Z,100.00
2024-02-21T22:28:35.220Z,100.00
2024-02-21T22:31:02.462Z,100.00
2024-02-21T22:33:29.817Z,100.00
2024-02-21T22:35:56.880Z,100.00
2024-02-21T22:38:24.224Z,100.00
2024-02-21T22:40:51.099Z,100.00
2024-02-21T22:43:18.401Z,100.00
2024-02-21T22:45:48.442Z,100.00
2024-02-21T22:48:15.356Z,100.00
2024-02-21T22:50:42.814Z,100.00
2024-02-21T22:53:09.912Z,100.00
2024-02-21T22:55:37.278Z,100.00
2024-02-21T22:58:04.261Z,100.00
2024-02-21T23:00:32.110Z,100.00
2024-02-21T23:02:59.514Z,100.00
2024-02-21T23:05:26.684Z,100.00
2024-02-21T23:07:54.104Z,100.00
2024-02-21T23:10:24.950Z,100.00
2024-02-21T23:12:52.640Z,100.00
2024-02-21T23:15:19.707Z,100.00
2024-02-21T23:17:46.735Z,100.00
2024-02-21T23:20:13.831Z,100.00
2024-02-21T23:22:42.003Z,100.00
2024-02-21T23:25:11.860Z,100.00
2024-02-21T23:27:38.764Z,100.00
2024-02-21T23:30:12.661Z,100.00
2024-02-21T23:32:39.900Z,100.00
2024-02-21T23:35:07.692Z,100.00
2024-02-21T23:37:35.149Z,100.00
2024-02-21T23:40:02.065Z,100.00
2024-02-21T23:42:29.213Z,100.00
2024-02-21T23:44:56.627Z,100.00
2024-02-21T23:47:23.567Z,100.00
2024-02-21T23:49:50.828Z,100.00
2024-02-21T23:52:18.089Z,100.00
2024-02-21T23:54:44.991Z,100.00
2024-02-21T23:57:11.974Z,100.00
2024-02-21T23:59:39.531Z,100.00
